Time;durP1;ratioP1;P1;durP2;ratioP2;P2;SDS_P1;SDS_P2;PMS_P1;PMS_P2;Temp;Humidity;BMP_temperature;BMP_pressure;BME280_temperature;BME280_humidity;BME280_pressure;Samples;Min_cycle;Max_cycle;Signal;HPM_P1;HPM_P2
2023/12/05 00:02:21;;;;;;;53.77;29.60;;;;;;;-145.18;100.00;46662.34;5088150;28;20063;-67
2023/12/05 00:04:47;;;;;;;53.17;28.00;;;;;;;-145.18;100.00;46664.31;5082753;28;20105;-67
2023/12/05 00:07:12;;;;;;;54.97;27.63;;;;;;;-145.18;100.00;46664.31;5102200;28;20443;-67
2023/12/05 00:09:38;;;;;;;53.80;27.03;;;;;;;-145.18;100.00;46658.44;5087041;28;20052;-67
2023/12/05 00:12:04;;;;;;;52.30;26.83;;;;;;;-145.18;100.00;46666.25;5086884;28;20028;-67
2023/12/05 00:14:31;;;;;;;55.23;28.27;;;;;;;-145.18;100.00;46666.25;5093149;28;20051;-67
2023/12/05 00:16:56;;;;;;;52.33;26.93;;;;;;;-145.18;100.00;46662.34;5086341;28;20667;-67
2023/12/05 00:19:21;;;;;;;54.40;28.23;;;;;;;-145.18;100.00;46662.34;5072981;28;20275;-67
2023/12/05 00:21:47;;;;;;;55.57;27.90;;;;;;;-145.18;100.00;46664.31;5090932;28;20412;-67
2023/12/05 00:24:12;;;;;;;56.97;29.40;;;;;;;-145.18;100.00;46662.34;5091744;28;20050;-72
2023/12/05 00:26:38;;;;;;;59.63;29.33;;;;;;;-145.18;100.00;46662.34;5090275;28;20059;-73
2023/12/05 00:29:03;;;;;;;51.83;28.00;;;;;;;-145.18;100.00;46666.25;5089865;28;20032;-73
2023/12/05 00:31:28;;;;;;;54.03;27.90;;;;;;;-145.18;100.00;46662.34;5091784;28;20116;-72
2023/12/05 00:33:54;;;;;;;55.80;28.60;;;;;;;-145.18;100.00;46664.31;5092264;28;20491;-72
2023/12/05 00:36:19;;;;;;;58.23;30.27;;;;;;;-145.18;100.00;46658.44;5089474;28;20042;-73
2023/12/05 00:38:44;;;;;;;52.77;28.13;;;;;;;-145.18;100.00;46652.59;5089111;28;20024;-72
2023/12/05 00:41:10;;;;;;;58.70;29.07;;;;;;;-145.18;100.00;46662.34;5087105;28;20036;-73
2023/12/05 00:43:36;;;;;;;58.50;28.53;;;;;;;-145.18;100.00;46658.44;5090217;28;20484;-72
2023/12/05 00:46:02;;;;;;;55.37;29.03;;;;;;;-145.18;100.00;46658.44;5087102;28;20027;-73
2023/12/05 00:48:27;;;;;;;55.77;28.43;;;;;;;-145.18;100.00;46660.41;5089404;28;20273;-72
2023/12/05 00:50:53;;;;;;;54.10;28.60;;;;;;;-145.18;100.00;46660.41;5090709;28;20115;-72
2023/12/05 00:53:18;;;;;;;54.20;26.60;;;;;;;-145.18;100.00;46660.41;5089501;28;20058;-73
2023/12/05 00:55:43;;;;;;;57.83;29.90;;;;;;;-145.18;100.00;46660.41;5088953;28;20043;-73
2023/12/05 00:58:09;;;;;;;55.87;27.50;;;;;;;-145.18;100.00;46662.34;5083865;28;20059;-73
2023/12/05 01:00:34;;;;;;;61.57;28.67;;;;;;;-145.18;100.00;46660.41;5090307;28;20096;-73
2023/12/05 01:03:00;;;;;;;56.93;29.23;;;;;;;-145.18;100.00;46662.34;5087194;28;20032;-73
2023/12/05 01:05:25;;;;;;;59.90;29.50;;;;;;;-145.18;100.00;46658.44;5086582;28;20145;-73
2023/12/05 01:07:50;;;;;;;63.13;29.73;;;;;;;-145.18;100.00;46662.34;5097123;28;20479;-73
2023/12/05 01:10:16;;;;;;;53.60;27.93;;;;;;;-145.18;100.00;46660.41;5087231;28;20416;-73
2023/12/05 01:12:41;;;;;;;57.43;28.00;;;;;;;-145.18;100.00;46658.44;5089452;28;20043;-73
2023/12/05 01:15:07;;;;;;;55.10;27.20;;;;;;;-145.18;100.00;46662.34;5082852;28;20047;-72
2023/12/05 01:17:32;;;;;;;55.10;27.00;;;;;;;-145.18;100.00;46664.31;5089944;28;20040;-73
2023/12/05 01:19:58;;;;;;;56.70;29.33;;;;;;;-145.18;100.00;46660.41;5085705;28;20075;-73
2023/12/05 01:22:23;;;;;;;54.67;27.87;;;;;;;-145.18;100.00;46662.34;5092044;28;20105;-73
2023/12/05 01:24:56;;;;;;;57.67;29.90;;;;;;;-145.18;100.00;46658.44;5079398;28;20416;-73
2023/12/05 01:27:22;;;;;;;57.87;28.43;;;;;;;-145.18;100.00;46658.44;5088207;28;20403;-72
2023/12/05 01:29:47;;;;;;;57.67;27.50;;;;;;;-145.18;100.00;46658.44;5088809;28;20642;-73
2023/12/05 01:32:14;;;;;;;58.33;27.70;;;;;;;-145.18;100.00;46658.44;5090858;28;20280;-73
2023/12/05 01:34:39;;;;;;;57.43;29.27;;;;;;;-145.18;100.00;46660.41;5089422;28;20488;-73
2023/12/05 01:37:05;;;;;;;53.67;27.37;;;;;;;-145.18;100.00;46660.41;5089509;28;20330;-73
2023/12/05 01:39:30;;;;;;;57.60;28.10;;;;;;;-145.18;100.00;46660.41;5088879;28;20119;-73
2023/12/05 01:41:57;;;;;;;56.57;28.10;;;;;;;-145.18;100.00;46662.34;5086533;28;20089;-72
2023/12/05 01:44:23;;;;;;;57.60;26.40;;;;;;;-145.18;100.00;46662.34;5090958;28;20567;-73
2023/12/05 01:46:48;;;;;;;57.93;29.10;;;;;;;-145.18;100.00;46658.44;5088731;28;20363;-73
2023/12/05 01:49:16;;;;;;;61.13;29.40;;;;;;;-145.18;100.00;46658.44;5089408;28;20051;-72
2023/12/05 01:51:42;;;;;;;55.40;26.80;;;;;;;-145.18;100.00;46658.44;5089225;28;20032;-73
2023/12/05 01:54:07;;;;;;;60.40;28.13;;;;;;;-145.18;100.00;46658.44;5087479;28;20675;-72
2023/12/05 01:56:33;;;;;;;62.80;29.33;;;;;;;-145.18;100.00;46660.41;5090356;28;20042;-72
2023/12/05 01:58:58;;;;;;;62.00;29.00;;;;;;;-145.18;100.00;46660.41;5086840;28;20105;-73
2023/12/05 02:01:25;;;;;;;61.13;28.93;;;;;;;-145.18;100.00;46666.25;5086530;28;20039;-74
2023/12/05 02:03:50;;;;;;;54.67;26.80;;;;;;;-145.18;100.00;46660.41;5091201;28;20086;-74
2023/12/05 02:06:21;;;;;;;55.57;27.17;;;;;;;-145.18;100.00;46654.53;5086286;28;20782;-73
2023/12/05 02:08:49;;;;;;;55.27;27.70;;;;;;;-145.18;100.00;46660.41;5086327;28;20520;-73
2023/12/05 02:11:15;;;;;;;58.40;28.27;;;;;;;-145.18;100.00;46664.31;5084598;28;20364;-73
2023/12/05 02:13:43;;;;;;;56.73;27.37;;;;;;;-145.18;100.00;46658.44;5087353;28;20272;-73
2023/12/05 02:16:40;;;;;;;55.17;27.67;;;;;;;-145.18;100.00;46660.41;5089846;28;20295;-73
2023/12/05 02:19:22;;;;;;;59.50;27.37;;;;;;;-145.18;100.00;46660.41;5082275;28;20272;-73
2023/12/05 02:21:50;;;;;;;59.93;28.00;;;;;;;-145.18;100.00;46658.44;5084028;28;20651;-73
2023/12/05 02:24:46;;;;;;;54.83;27.00;;;;;;;-145.18;100.00;46658.44;5090270;28;20330;-73
2023/12/05 02:27:19;;;;;;;57.47;26.67;;;;;;;-145.18;100.00;46658.44;5088430;28;20271;-74
2023/12/05 02:29:51;;;;;;;52.93;26.03;;;;;;;-145.18;100.00;46658.44;5086157;28;20177;-73
2023/12/05 02:32:17;;;;;;;55.47;27.23;;;;;;;-145.18;100.00;46656.50;5085455;28;20280;-73
2023/12/05 02:34:43;;;;;;;56.50;27.00;;;;;;;-145.18;100.00;46660.41;5085881;28;20276;-73
2023/12/05 02:37:32;;;;;;;58.20;28.30;;;;;;;-145.18;100.00;46656.50;5088133;28;20326;-73
2023/12/05 02:40:12;;;;;;;59.30;27.43;;;;;;;-145.18;100.00;46660.41;5081875;28;20549;-73
2023/12/05 02:42:39;;;;;;;56.70;27.77;;;;;;;-145.18;100.00;46658.44;5087809;28;20637;-67
2023/12/05 02:45:09;;;;;;;55.93;27.47;;;;;;;-145.18;100.00;46660.41;5089144;28;20272;-73
2023/12/05 02:47:37;;;;;;;64.60;28.97;;;;;;;-145.18;100.00;46656.50;5085607;28;20268;-73
2023/12/05 02:50:03;;;;;;;58.10;27.23;;;;;;;-145.18;100.00;46658.44;5089684;28;20278;-74
2023/12/05 02:52:29;;;;;;;58.70;27.50;;;;;;;-145.18;100.00;46656.50;5087535;28;20268;-73
2023/12/05 02:54:54;;;;;;;58.17;27.57;;;;;;;-145.18;100.00;46652.59;5084710;28;20051;-73
2023/12/05 02:57:19;;;;;;;57.63;28.57;;;;;;;-145.18;100.00;46660.41;5085950;28;20364;-73
2023/12/05 02:59:45;;;;;;;57.20;29.03;;;;;;;-145.18;100.00;46656.50;5087679;28;20058;-73
2023/12/05 03:02:10;;;;;;;62.33;28.20;;;;;;;-145.18;100.00;46660.41;5086922;28;20028;-73
2023/12/05 03:04:35;;;;;;;55.73;27.77;;;;;;;-145.18;100.00;46662.34;5088506;28;20366;-73
2023/12/05 03:07:01;;;;;;;64.83;27.53;;;;;;;-145.18;100.00;46656.50;5088579;28;20035;-73
2023/12/05 03:09:26;;;;;;;65.07;30.77;;;;;;;-145.18;100.00;46654.53;5086982;28;20051;-73
2023/12/05 03:11:52;;;;;;;67.33;30.00;;;;;;;-145.18;100.00;46654.53;5089316;28;20036;-73
2023/12/05 03:14:17;;;;;;;67.50;31.73;;;;;;;-145.18;100.00;46654.53;5086713;28;20032;-74
2023/12/05 03:16:43;;;;;;;71.63;31.00;;;;;;;-145.18;100.00;46656.50;5090588;28;20032;-72
2023/12/05 03:19:08;;;;;;;64.77;29.40;;;;;;;-145.18;100.00;46656.50;5092005;28;20056;-73
2023/12/05 03:21:34;;;;;;;63.20;30.03;;;;;;;-145.18;100.00;46658.44;5092923;28;20416;-74
2023/12/05 03:23:59;;;;;;;68.30;31.37;;;;;;;-145.18;100.00;46656.50;5087987;28;20089;-73
2023/12/05 03:26:24;;;;;;;64.53;30.33;;;;;;;-145.18;100.00;46650.63;5094154;28;20032;-73
2023/12/05 03:28:51;;;;;;;69.83;30.83;;;;;;;-145.18;100.00;46654.53;5091242;28;20059;-73
2023/12/05 03:31:17;;;;;;;70.40;30.40;;;;;;;-145.18;100.00;46656.50;5090794;28;20472;-74
2023/12/05 03:33:43;;;;;;;72.30;31.73;;;;;;;-145.18;100.00;46656.50;5093892;28;20359;-73
2023/12/05 03:36:10;;;;;;;71.47;29.97;;;;;;;-145.18;100.00;46654.53;5091648;28;20273;-73
2023/12/05 03:38:37;;;;;;;71.37;31.23;;;;;;;-145.18;100.00;46654.53;5090617;28;20043;-74
2023/12/05 03:41:03;;;;;;;68.27;31.30;;;;;;;-145.18;100.00;46656.50;5088102;28;20313;-73
2023/12/05 03:43:28;;;;;;;77.97;33.37;;;;;;;-145.18;100.00;46656.50;5090466;28;20261;-73
2023/12/05 03:45:54;;;;;;;78.00;32.33;;;;;;;-145.18;100.00;46658.44;5089643;28;20032;-73
2023/12/05 03:48:19;;;;;;;75.70;32.93;;;;;;;-145.18;100.00;46654.53;5089874;28;20028;-73
2023/12/05 03:50:44;;;;;;;80.03;33.27;;;;;;;-145.18;100.00;46658.44;5087631;28;20033;-73
2023/12/05 03:53:10;;;;;;;75.43;32.57;;;;;;;-145.18;100.00;46656.50;5092447;28;20031;-73
2023/12/05 03:55:35;;;;;;;74.03;32.50;;;;;;;-145.18;100.00;46656.50;5073251;28;20102;-73
2023/12/05 03:58:01;;;;;;;79.77;32.13;;;;;;;-145.18;100.00;46654.53;5091431;28;20032;-73
2023/12/05 04:00:26;;;;;;;73.83;31.33;;;;;;;-145.18;100.00;46660.41;5089375;28;20439;-72
2023/12/05 04:02:52;;;;;;;74.57;32.57;;;;;;;-145.18;100.00;46660.41;5090187;28;20042;-73
2023/12/05 04:05:18;;;;;;;76.10;31.60;;;;;;;-145.18;100.00;46654.53;5091078;28;20119;-74
2023/12/05 04:07:45;;;;;;;81.27;33.70;;;;;;;-145.18;100.00;46652.59;5091775;28;20032;-73
2023/12/05 04:10:11;;;;;;;79.00;31.93;;;;;;;-145.18;100.00;46658.44;5084936;28;20048;-73
2023/12/05 04:12:40;;;;;;;77.13;33.00;;;;;;;-145.18;100.00;46656.50;5089376;28;20275;-73
2023/12/05 04:15:07;;;;;;;73.47;32.13;;;;;;;-145.18;100.00;46656.50;5087049;28;20317;-73
2023/12/05 04:17:34;;;;;;;77.90;32.50;;;;;;;-145.18;100.00;46656.50;5089963;28;20302;-73
2023/12/05 04:19:59;;;;;;;78.63;32.43;;;;;;;-145.18;100.00;46652.59;5091005;28;20295;-73
2023/12/05 04:22:25;;;;;;;78.10;31.47;;;;;;;-145.18;100.00;46652.59;5093206;28;20453;-74
2023/12/05 04:24:50;;;;;;;79.07;32.80;;;;;;;-145.18;100.00;46652.59;5082704;28;20447;-73
2023/12/05 04:27:15;;;;;;;81.60;33.33;;;;;;;-145.18;100.00;46652.59;5088998;28;20036;-73
2023/12/05 04:29:42;;;;;;;83.23;32.30;;;;;;;-145.18;100.00;46654.53;5090180;28;20035;-73
2023/12/05 04:32:08;;;;;;;83.63;32.73;;;;;;;-145.18;100.00;46654.53;5088405;28;20031;-72
2023/12/05 04:34:34;;;;;;;82.93;31.77;;;;;;;-145.18;100.00;46654.53;5087406;28;21129;-73
2023/12/05 04:37:00;;;;;;;88.80;33.83;;;;;;;-145.18;100.00;46656.50;5091174;28;20047;-74
2023/12/05 04:39:25;;;;;;;80.13;31.93;;;;;;;-145.18;100.00;46652.59;5086823;28;21072;-74
2023/12/05 04:41:51;;;;;;;80.77;32.27;;;;;;;-145.18;100.00;46650.63;5089879;28;20040;-73
2023/12/05 04:44:16;;;;;;;85.20;30.03;;;;;;;-145.18;100.00;46650.63;5089031;28;20318;-73
2023/12/05 04:46:42;;;;;;;80.80;33.20;;;;;;;-145.18;100.00;46654.53;5090452;28;20032;-73
2023/12/05 04:49:08;;;;;;;75.83;30.57;;;;;;;-145.18;100.00;46652.59;5087906;28;20497;-74
2023/12/05 04:51:33;;;;;;;81.87;31.60;;;;;;;-145.18;100.00;46654.53;5089281;28;20376;-73
2023/12/05 04:53:59;;;;;;;79.07;31.23;;;;;;;-145.18;100.00;46652.59;5088605;28;20024;-74
2023/12/05 04:56:24;;;;;;;73.43;29.00;;;;;;;-145.18;100.00;46650.63;5086822;28;20032;-74
2023/12/05 04:58:50;;;;;;;70.80;29.10;;;;;;;-145.18;100.00;46656.50;5090091;28;20031;-74
2023/12/05 05:01:15;;;;;;;75.50;31.70;;;;;;;-145.18;100.00;46650.63;5090219;28;20510;-73
2023/12/05 05:03:41;;;;;;;84.13;30.87;;;;;;;-145.18;100.00;46654.53;5088946;28;20035;-73
2023/12/05 05:06:06;;;;;;;80.50;31.63;;;;;;;-145.18;100.00;46654.53;5089681;28;20426;-73
2023/12/05 05:08:32;;;;;;;75.90;31.23;;;;;;;-145.18;100.00;46654.53;5089493;28;20028;-74
2023/12/05 05:10:57;;;;;;;76.13;29.63;;;;;;;-145.18;100.00;46654.53;5088255;28;20036;-73
2023/12/05 05:13:22;;;;;;;75.93;29.87;;;;;;;-145.18;100.00;46654.53;5085543;28;20040;-73
2023/12/05 05:15:48;;;;;;;76.13;30.87;;;;;;;-145.18;100.00;46656.50;5090594;28;20066;-73
2023/12/05 05:18:13;;;;;;;85.83;29.63;;;;;;;-145.18;100.00;46652.59;5088477;28;20085;-72
2023/12/05 05:20:38;;;;;;;79.47;30.60;;;;;;;-145.18;100.00;46654.53;5089024;28;20136;-73
2023/12/05 05:23:04;;;;;;;78.30;30.33;;;;;;;-145.18;100.00;46656.50;5089590;28;20119;-73
2023/12/05 05:25:30;;;;;;;77.07;30.23;;;;;;;-145.18;100.00;46658.44;5090756;28;20085;-73
2023/12/05 05:27:55;;;;;;;76.43;28.60;;;;;;;-145.18;100.00;46656.50;5082770;28;20356;-72
2023/12/05 05:30:21;;;;;;;80.67;29.33;;;;;;;-145.18;100.00;46656.50;5081737;28;20028;-73
2023/12/05 05:32:46;;;;;;;78.37;30.70;;;;;;;-145.18;100.00;46652.59;5090788;28;20136;-74
2023/12/05 05:35:12;;;;;;;74.47;29.03;;;;;;;-145.18;100.00;46654.53;5086418;28;20512;-74
2023/12/05 05:37:37;;;;;;;81.10;29.50;;;;;;;-145.18;100.00;46654.53;5085853;28;20409;-73
2023/12/05 05:40:03;;;;;;;78.60;30.27;;;;;;;-145.18;100.00;46660.41;5088102;28;20028;-73
2023/12/05 05:42:28;;;;;;;75.53;28.13;;;;;;;-145.18;100.00;46658.44;5087732;28;20123;-73
2023/12/05 05:44:54;;;;;;;79.43;30.13;;;;;;;-145.18;100.00;46660.41;5089787;28;20032;-74
2023/12/05 05:47:19;;;;;;;90.80;30.20;;;;;;;-145.18;100.00;46654.53;5083196;28;20067;-74
2023/12/05 05:49:46;;;;;;;80.23;30.40;;;;;;;-145.18;100.00;46656.50;5085857;28;20028;-74
2023/12/05 05:52:11;;;;;;;77.87;29.20;;;;;;;-145.18;100.00;46652.59;5088936;28;20040;-73
2023/12/05 05:54:36;;;;;;;78.83;30.17;;;;;;;-145.18;100.00;46660.41;5089825;28;20272;-73
2023/12/05 05:57:02;;;;;;;88.10;32.53;;;;;;;-145.18;100.00;46658.44;5081096;28;20033;-73
2023/12/05 05:59:27;;;;;;;81.80;31.30;;;;;;;-145.18;100.00;46652.59;5090625;28;20050;-73
2023/12/05 06:01:53;;;;;;;72.80;28.63;;;;;;;-145.18;100.00;46652.59;5086064;28;20068;-73
2023/12/05 06:04:18;;;;;;;90.97;30.47;;;;;;;-145.18;100.00;46652.59;5086506;28;20059;-74
2023/12/05 06:06:44;;;;;;;82.73;31.03;;;;;;;-145.18;100.00;46662.34;5088566;28;20071;-73
2023/12/05 06:09:09;;;;;;;85.60;32.13;;;;;;;-145.18;100.00;46658.44;5089544;28;20051;-73
2023/12/05 06:11:35;;;;;;;91.50;32.00;;;;;;;-145.18;100.00;46656.50;5087523;28;20114;-74
2023/12/05 06:14:00;;;;;;;97.07;32.93;;;;;;;-145.18;100.00;46658.44;5087691;28;20032;-74
2023/12/05 06:16:25;;;;;;;86.07;32.70;;;;;;;-145.18;100.00;46662.34;5088316;28;20028;-73
2023/12/05 06:18:51;;;;;;;87.30;31.97;;;;;;;-145.18;100.00;46662.34;5087432;28;20048;-74
2023/12/05 06:21:17;;;;;;;96.77;35.43;;;;;;;-145.18;100.00;46652.59;5087956;28;20454;-74
2023/12/05 06:23:42;;;;;;;92.10;33.00;;;;;;;-145.18;100.00;46660.41;5089779;28;20043;-73
2023/12/05 06:26:07;;;;;;;84.67;30.67;;;;;;;-145.18;100.00;46656.50;5086977;28;20043;-73
2023/12/05 06:28:33;;;;;;;87.03;31.97;;;;;;;-145.18;100.00;46660.41;5089414;28;20032;-74
2023/12/05 06:30:58;;;;;;;89.23;32.93;;;;;;;-145.18;100.00;46658.44;5086315;28;20040;-73
2023/12/05 06:33:23;;;;;;;87.50;32.03;;;;;;;-145.18;100.00;46658.44;5084446;28;20522;-74
2023/12/05 06:35:49;;;;;;;89.57;30.63;;;;;;;-145.18;100.00;46660.41;5085231;28;20081;-73
2023/12/05 06:38:15;;;;;;;91.93;32.37;;;;;;;-145.18;100.00;46662.34;5083801;28;20058;-74
2023/12/05 06:40:40;;;;;;;91.27;30.97;;;;;;;-145.18;100.00;46666.25;5081819;28;20488;-74
2023/12/05 06:43:07;;;;;;;84.80;31.87;;;;;;;-145.18;100.00;46650.63;5080707;28;20036;-74
2023/12/05 06:45:34;;;;;;;94.80;32.70;;;;;;;-145.18;100.00;46660.41;5081839;28;20035;-73
2023/12/05 06:48:02;;;;;;;83.97;31.20;;;;;;;-145.18;100.00;46660.41;5084422;28;20352;-73
2023/12/05 06:50:28;;;;;;;86.70;30.87;;;;;;;-145.18;100.00;46664.31;5066062;28;20280;-73
2023/12/05 06:52:57;;;;;;;90.97;33.43;;;;;;;-145.18;100.00;46662.34;5086452;28;20311;-74
2023/12/05 06:55:23;;;;;;;84.57;32.07;;;;;;;-145.18;100.00;46656.50;5103008;28;20050;-74
2023/12/05 06:57:49;;;;;;;88.60;31.43;;;;;;;-145.18;100.00;46658.44;5086265;28;20357;-73
2023/12/05 07:00:15;;;;;;;83.83;32.50;;;;;;;-145.18;100.00;46664.31;5090600;28;20307;-73
2023/12/05 07:02:41;;;;;;;82.43;30.33;;;;;;;-145.18;100.00;46662.34;5085293;28;20122;-73
2023/12/05 07:05:07;;;;;;;91.27;33.50;;;;;;;-145.18;100.00;46658.44;5082580;28;20876;-74
2023/12/05 07:07:32;;;;;;;86.03;31.40;;;;;;;-145.18;100.00;46660.41;5086928;28;20047;-73
2023/12/05 07:09:58;;;;;;;96.67;32.67;;;;;;;-145.18;100.00;46662.34;5083863;28;20284;-73
2023/12/05 07:12:23;;;;;;;87.57;30.60;;;;;;;-145.18;100.00;46664.31;5082392;28;20043;-74
2023/12/05 07:14:48;;;;;;;86.73;30.13;;;;;;;-145.18;100.00;46662.34;5085374;28;20035;-74
2023/12/05 07:17:14;;;;;;;75.83;30.03;;;;;;;-145.18;100.00;46658.44;5091453;28;20031;-74
2023/12/05 07:19:39;;;;;;;75.83;29.80;;;;;;;-145.18;100.00;46664.31;5088659;28;20480;-74
2023/12/05 07:22:05;;;;;;;73.87;27.30;;;;;;;-145.18;100.00;46668.22;5093069;28;20036;-73
2023/12/05 07:24:30;;;;;;;70.77;27.73;;;;;;;-145.18;100.00;46664.31;5092093;28;20032;-74
2023/12/05 07:26:55;;;;;;;65.17;26.87;;;;;;;-145.18;100.00;46668.22;5092157;28;20067;-74
2023/12/05 07:29:21;;;;;;;60.20;22.83;;;;;;;-145.18;100.00;46664.31;5091994;28;20047;-73
2023/12/05 07:31:46;;;;;;;59.53;23.57;;;;;;;-145.18;100.00;46666.25;5091427;28;20804;-73
2023/12/05 07:34:12;;;;;;;56.03;22.03;;;;;;;-145.18;100.00;46662.34;5094186;28;20051;-73
2023/12/05 07:36:41;;;;;;;52.03;21.70;;;;;;;-145.18;100.00;46664.31;5090588;28;20435;-73
2023/12/05 07:39:06;;;;;;;49.73;22.07;;;;;;;-145.18;100.00;46660.41;5090094;28;20074;-73
2023/12/05 07:41:32;;;;;;;53.13;22.33;;;;;;;-145.18;100.00;46662.34;5085047;28;20776;-73
2023/12/05 07:43:58;;;;;;;57.33;24.07;;;;;;;-145.18;100.00;46662.34;5085339;28;20036;-74
2023/12/05 07:46:23;;;;;;;54.97;22.67;;;;;;;-145.18;100.00;46668.22;5091709;28;20038;-74
2023/12/05 07:48:49;;;;;;;56.10;23.00;;;;;;;-145.18;100.00;46664.31;5079723;28;20040;-73
2023/12/05 07:51:18;;;;;;;48.33;21.17;;;;;;;-145.18;100.00;46666.25;5090519;28;20126;-74
2023/12/05 07:53:45;;;;;;;53.30;21.83;;;;;;;-145.18;100.00;46660.41;5089839;28;20032;-74
2023/12/05 07:56:10;;;;;;;56.13;21.13;;;;;;;-145.18;100.00;46666.25;5092408;28;20694;-74
2023/12/05 07:58:36;;;;;;;53.13;21.23;;;;;;;-145.18;100.00;46664.31;5090374;28;20308;-72
2023/12/05 08:01:01;;;;;;;54.13;21.83;;;;;;;-145.18;100.00;46664.31;5078964;28;20115;-73
2023/12/05 08:03:28;;;;;;;56.17;23.27;;;;;;;-145.18;100.00;46668.22;5090634;28;20067;-73
2023/12/05 08:05:54;;;;;;;55.27;22.43;;;;;;;-145.18;100.00;46670.16;5084194;28;20480;-73
2023/12/05 08:08:20;;;;;;;55.97;20.90;;;;;;;-145.18;100.00;46668.22;5081416;28;20279;-74
2023/12/05 08:10:45;;;;;;;66.40;23.20;;;;;;;-145.18;100.00;46668.22;5080714;28;20289;-73
2023/12/05 08:13:10;;;;;;;53.30;21.40;;;;;;;-145.18;100.00;46662.34;5081194;28;20480;-73
2023/12/05 08:15:36;;;;;;;58.10;21.00;;;;;;;-145.18;100.00;46664.31;5081926;28;20147;-73
2023/12/05 08:18:01;;;;;;;65.27;23.77;;;;;;;-145.18;100.00;46668.22;5081779;28;20039;-74
2023/12/05 08:20:27;;;;;;;58.53;23.77;;;;;;;-145.18;100.00;46664.31;5081987;28;20172;-73
2023/12/05 08:22:52;;;;;;;56.00;22.47;;;;;;;-145.18;100.00;46674.06;5082651;28;20118;-73
2023/12/05 08:25:18;;;;;;;50.87;21.40;;;;;;;-145.18;100.00;46660.41;5082638;28;20035;-74
2023/12/05 08:27:43;;;;;;;55.30;22.03;;;;;;;-145.18;100.00;46666.25;5080059;28;20081;-72
2023/12/05 08:30:09;;;;;;;55.20;21.37;;;;;;;-145.18;100.00;46664.31;5082583;28;20085;-73
2023/12/05 08:32:34;;;;;;;61.63;22.70;;;;;;;-145.18;100.00;46668.22;5082623;28;20051;-74
2023/12/05 08:35:00;;;;;;;51.90;21.53;;;;;;;-145.18;100.00;46666.25;5081364;28;20135;-74
2023/12/05 08:37:26;;;;;;;49.23;22.33;;;;;;;-145.18;100.00;46670.16;5082576;28;20036;-73
2023/12/05 08:39:52;;;;;;;52.57;21.47;;;;;;;-145.18;100.00;46666.25;5080448;28;20760;-74
2023/12/05 08:42:17;;;;;;;51.53;20.63;;;;;;;-145.18;100.00;46672.13;5082140;28;20280;-73
2023/12/05 08:44:43;;;;;;;52.47;20.90;;;;;;;-145.18;100.00;46668.22;5081571;28;20051;-73
2023/12/05 08:47:08;;;;;;;54.47;20.80;;;;;;;-145.18;100.00;46668.22;5081325;28;20070;-73
2023/12/05 08:49:33;;;;;;;50.27;19.23;;;;;;;-145.18;100.00;46672.13;5081214;28;20142;-73
2023/12/05 08:51:59;;;;;;;53.33;19.43;;;;;;;-145.18;100.00;46670.16;5078115;28;20040;-73
2023/12/05 08:54:24;;;;;;;53.30;21.20;;;;;;;-145.18;100.00;46660.41;5080831;28;20088;-73
2023/12/05 08:56:50;;;;;;;55.60;22.60;;;;;;;-145.18;100.00;46666.25;5081991;28;20081;-74
2023/12/05 08:59:16;;;;;;;49.50;20.43;;;;;;;-145.18;100.00;46664.31;5080277;28;20115;-73
2023/12/05 09:01:45;;;;;;;120.30;39.27;;;;;;;-145.18;100.00;46668.22;5082009;28;20363;-73
2023/12/05 09:04:10;;;;;;;93.07;32.97;;;;;;;-145.18;100.00;46668.22;5081250;28;20038;-73
2023/12/05 09:06:36;;;;;;;86.73;30.83;;;;;;;-145.18;100.00;46664.31;5081329;28;20281;-73
2023/12/05 09:09:02;;;;;;;57.97;22.30;;;;;;;-145.18;100.00;46672.13;5081766;28;20086;-74
2023/12/05 09:11:27;;;;;;;66.23;24.90;;;;;;;-145.18;100.00;46668.22;5082435;28;20043;-73
2023/12/05 09:13:53;;;;;;;55.27;22.53;;;;;;;-145.18;100.00;46664.31;5079717;28;20337;-74
2023/12/05 09:16:20;;;;;;;57.00;21.53;;;;;;;-145.18;100.00;46676.03;5081763;28;21205;-73
2023/12/05 09:18:45;;;;;;;83.70;31.00;;;;;;;-145.18;100.00;46674.06;5080782;28;20032;-73
2023/12/05 09:21:10;;;;;;;94.43;33.37;;;;;;;-145.18;100.00;46670.16;5082185;28;20633;-73
2023/12/05 09:23:36;;;;;;;73.10;28.63;;;;;;;-145.18;100.00;46674.06;5081860;28;20131;-74
2023/12/05 09:26:02;;;;;;;85.93;33.30;;;;;;;-145.18;100.00;46670.16;5081963;28;20038;-74
2023/12/05 09:28:28;;;;;;;55.53;22.43;;;;;;;-145.18;100.00;46668.22;5081159;28;20062;-73
2023/12/05 09:30:53;;;;;;;72.90;27.70;;;;;;;-145.18;100.00;46666.25;5083298;28;20101;-73
2023/12/05 09:33:19;;;;;;;43.03;20.10;;;;;;;-145.18;100.00;46672.13;5078812;28;21051;-73
2023/12/05 09:35:45;;;;;;;47.37;19.90;;;;;;;-145.18;100.00;46672.13;5080709;28;20036;-73
2023/12/05 09:38:11;;;;;;;40.07;18.63;;;;;;;-145.18;100.00;46672.13;5080488;28;20748;-74
2023/12/05 09:40:36;;;;;;;49.73;19.53;;;;;;;-145.18;100.00;46670.16;5078936;28;20054;-74
2023/12/05 09:43:04;;;;;;;48.90;19.23;;;;;;;-145.18;100.00;46670.16;5080533;28;20044;-74
2023/12/05 09:45:36;;;;;;;46.87;17.97;;;;;;;-145.18;100.00;46666.25;5079155;28;20028;-74
2023/12/05 09:48:06;;;;;;;45.80;20.23;;;;;;;-145.18;100.00;46672.13;5079944;28;20372;-74
2023/12/05 09:50:31;;;;;;;46.90;21.23;;;;;;;-145.18;100.00;46672.13;5081446;28;20621;-73
2023/12/05 09:52:59;;;;;;;51.70;19.80;;;;;;;-145.18;100.00;46670.16;5081068;28;20287;-74
2023/12/05 09:55:24;;;;;;;51.40;21.73;;;;;;;-145.18;100.00;46674.06;5079870;28;20106;-73
2023/12/05 09:57:50;;;;;;;51.40;20.70;;;;;;;-145.18;100.00;46674.06;5082093;28;20346;-74
2023/12/05 10:00:16;;;;;;;46.70;21.07;;;;;;;-145.18;100.00;46674.06;5080711;28;20486;-73
2023/12/05 10:02:46;;;;;;;42.53;17.90;;;;;;;-145.18;100.00;46668.22;5079618;28;20277;-74
2023/12/05 10:05:14;;;;;;;40.60;17.80;;;;;;;-145.18;100.00;46672.13;5079381;28;20048;-74
2023/12/05 10:07:41;;;;;;;43.43;16.90;;;;;;;-145.18;100.00;46672.13;5079458;28;20372;-74
2023/12/05 10:10:08;;;;;;;46.87;17.70;;;;;;;-145.18;100.00;46679.94;5080860;28;20301;-74
2023/12/05 10:12:34;;;;;;;46.80;20.20;;;;;;;-145.18;100.00;46677.97;5078814;28;20756;-74
2023/12/05 10:15:00;;;;;;;50.23;19.63;;;;;;;-145.18;100.00;46672.13;5077376;28;20363;-67
2023/12/05 10:17:26;;;;;;;60.03;22.37;;;;;;;-145.18;100.00;46672.13;5078606;28;20039;-66
2023/12/05 10:19:51;;;;;;;68.53;27.07;;;;;;;-145.18;100.00;46672.13;5076030;28;20288;-66
2023/12/05 10:22:17;;;;;;;59.03;21.70;;;;;;;-145.18;100.00;46676.03;5079104;28;20636;-66
2023/12/05 10:24:45;;;;;;;53.97;21.77;;;;;;;-145.18;100.00;46672.13;5078965;28;20038;-66
2023/12/05 10:27:11;;;;;;;49.67;21.30;;;;;;;-145.18;100.00;46679.94;5084479;28;20442;-66
2023/12/05 10:29:39;;;;;;;44.03;19.67;;;;;;;-145.18;100.00;46672.13;5085815;28;20292;-66
2023/12/05 10:32:05;;;;;;;52.93;22.63;;;;;;;-145.18;100.00;46670.16;5082829;28;20093;-66
2023/12/05 10:34:44;;;;;;;58.33;23.00;;;;;;;-145.18;100.00;46679.94;5082987;28;20644;-67
2023/12/05 10:37:10;;;;;;;51.77;21.20;;;;;;;-145.18;100.00;46672.13;5083875;28;20265;-66
2023/12/05 10:39:36;;;;;;;53.43;22.87;;;;;;;-145.18;100.00;46670.16;5084541;28;20273;-66
2023/12/05 10:42:01;;;;;;;50.27;21.63;;;;;;;-145.18;100.00;46670.16;5082691;28;20043;-66
2023/12/05 10:44:26;;;;;;;53.60;22.80;;;;;;;-145.18;100.00;46672.13;5079911;28;20119;-66
2023/12/05 10:46:56;;;;;;;50.13;22.03;;;;;;;-145.18;100.00;46674.06;5080692;28;20046;-66
2023/12/05 10:49:22;;;;;;;51.73;20.47;;;;;;;-145.18;100.00;46664.31;5082109;28;20040;-66
2023/12/05 10:51:48;;;;;;;55.70;22.60;;;;;;;-145.18;100.00;46672.13;5083569;28;20680;-66